aviador You're here:

KXNA Decoded Metar

BENTONVILLE (NW) in AR, USA
Report Time2018-01-18 12:53:00
UTC Time2018-01-18 13:54:25
Flight Rules vfr VFR
Wind200° at 08 kt
W.Decomp.*RWY 17: 7.2 kt HW 3.5 kt RCW
RWY 16: 6.5 kt HW 4.7 kt RCW
W.Rank200° ranks 3
Current wind is below 200° avg. (8.2)
Visibility9999 m
Phenomena:N/A
Clouds:N/A
Expected CloudBase > 2,400 ft AGL from Temp-Dew spread
CeilingNone
Temp-8°C (ISA -20)
Dew Point-14°C (62% RH)
AAT-14.2°C
QNH1030 hPa
Density Alt-1,798 ft
Elevation1,286 ft
Report Wrong Elevation
Raw Report
KXNA 181253Z 20008KT 10SM CLR M08/M14 A3042 RMK AO2 SLP317
T10831144=

Extra information for KXNA:More info

Metar Taf Metar & Taf Last 4 Metars F.Rules Stats Wind Profile Meteogram Temp Stats Airport Information Weather charts Add Link Nearby VenuesMetar ALERT Operation Metar Decoded Social comments

AIRNAV info for KXNA